sensor_id;sensor_type;location;lat;lon;timestamp;pressure;altitude;pressure_sealevel;temperature;humidity
77725;BME280;66892;53.236;6.550;2023-06-05T00:00:42;102580.84;;;10.23;90.04
77725;BME280;66892;53.236;6.550;2023-06-05T00:03:08;102581.03;;;10.31;89.40
77725;BME280;66892;53.236;6.550;2023-06-05T00:05:34;102576.84;;;10.40;88.95
77725;BME280;66892;53.236;6.550;2023-06-05T00:08:00;102578.81;;;10.47;88.34
77725;BME280;66892;53.236;6.550;2023-06-05T00:10:26;102581.84;;;10.63;87.74
77725;BME280;66892;53.236;6.550;2023-06-05T00:12:54;102584.72;;;10.73;86.84
77725;BME280;66892;53.236;6.550;2023-06-05T00:15:21;102572.53;;;10.80;86.57
77725;BME280;66892;53.236;6.550;2023-06-05T00:17:47;102574.34;;;10.82;86.39
77725;BME280;66892;53.236;6.550;2023-06-05T00:20:13;102585.09;;;10.88;86.16
77725;BME280;66892;53.236;6.550;2023-06-05T00:22:39;102575.53;;;10.95;85.84
77725;BME280;66892;53.236;6.550;2023-06-05T00:25:06;102578.97;;;10.91;85.62
77725;BME280;66892;53.236;6.550;2023-06-05T00:27:32;102573.72;;;10.92;85.66
77725;BME280;66892;53.236;6.550;2023-06-05T00:30:00;102582.56;;;10.93;85.68
77725;BME280;66892;53.236;6.550;2023-06-05T00:32:26;102579.13;;;10.97;85.41
77725;BME280;66892;53.236;6.550;2023-06-05T00:34:52;102574.81;;;11.02;85.22
77725;BME280;66892;53.236;6.550;2023-06-05T00:37:19;102573.19;;;11.08;85.47
77725;BME280;66892;53.236;6.550;2023-06-05T00:39:45;102574.16;;;11.10;84.97
77725;BME280;66892;53.236;6.550;2023-06-05T00:42:11;102583.91;;;11.13;85.03
77725;BME280;66892;53.236;6.550;2023-06-05T00:44:37;102576.03;;;11.18;84.94
77725;BME280;66892;53.236;6.550;2023-06-05T00:47:05;102577.78;;;11.16;84.56
77725;BME280;66892;53.236;6.550;2023-06-05T00:49:31;102568.16;;;11.19;84.97
77725;BME280;66892;53.236;6.550;2023-06-05T00:51:57;102572.59;;;11.20;84.63
77725;BME280;66892;53.236;6.550;2023-06-05T00:54:24;102569.94;;;11.20;84.73
77725;BME280;66892;53.236;6.550;2023-06-05T00:56:50;102565.44;;;11.18;84.85
77725;BME280;66892;53.236;6.550;2023-06-05T00:59:18;102572.53;;;11.17;85.00
77725;BME280;66892;53.236;6.550;2023-06-05T01:01:45;102580.56;;;11.22;84.85
77725;BME280;66892;53.236;6.550;2023-06-05T01:04:12;102572.66;;;11.23;84.82
77725;BME280;66892;53.236;6.550;2023-06-05T01:06:38;102569.13;;;11.24;84.28
77725;BME280;66892;53.236;6.550;2023-06-05T01:09:07;102568.31;;;11.27;84.18
77725;BME280;66892;53.236;6.550;2023-06-05T01:11:40;102562.13;;;11.26;84.26
77725;BME280;66892;53.236;6.550;2023-06-05T01:14:14;102562.97;;;11.25;84.24
77725;BME280;66892;53.236;6.550;2023-06-05T01:16:47;102565.63;;;11.25;84.38
77725;BME280;66892;53.236;6.550;2023-06-05T01:19:15;102559.47;;;11.26;84.32
77725;BME280;66892;53.236;6.550;2023-06-05T01:21:41;102558.53;;;11.24;84.79
77725;BME280;66892;53.236;6.550;2023-06-05T01:24:08;102559.31;;;11.19;84.96
77725;BME280;66892;53.236;6.550;2023-06-05T01:26:38;102557.44;;;11.15;85.39
77725;BME280;66892;53.236;6.550;2023-06-05T01:29:11;102553.94;;;11.14;85.05
77725;BME280;66892;53.236;6.550;2023-06-05T01:31:42;102553.88;;;11.13;85.60
77725;BME280;66892;53.236;6.550;2023-06-05T01:34:11;102550.25;;;11.09;85.39
77725;BME280;66892;53.236;6.550;2023-06-05T01:36:42;102547.56;;;11.06;85.69
77725;BME280;66892;53.236;6.550;2023-06-05T01:39:10;102544.91;;;11.06;86.17
77725;BME280;66892;53.236;6.550;2023-06-05T01:41:37;102537.06;;;11.10;85.88
77725;BME280;66892;53.236;6.550;2023-06-05T01:44:05;102533.66;;;11.18;85.93
77725;BME280;66892;53.236;6.550;2023-06-05T01:46:34;102536.38;;;11.21;85.91
77725;BME280;66892;53.236;6.550;2023-06-05T01:49:01;102530.28;;;11.25;85.83
77725;BME280;66892;53.236;6.550;2023-06-05T01:51:28;102533.91;;;11.27;85.74
77725;BME280;66892;53.236;6.550;2023-06-05T01:53:54;102535.59;;;11.25;85.36
77725;BME280;66892;53.236;6.550;2023-06-05T01:56:23;102529.41;;;11.24;85.63
77725;BME280;66892;53.236;6.550;2023-06-05T01:58:49;102533.84;;;11.24;85.81
77725;BME280;66892;53.236;6.550;2023-06-05T02:01:15;102527.66;;;11.25;85.71
77725;BME280;66892;53.236;6.550;2023-06-05T02:03:42;102528.66;;;11.30;85.87
77725;BME280;66892;53.236;6.550;2023-06-05T02:06:13;102531.38;;;11.33;85.48
77725;BME280;66892;53.236;6.550;2023-06-05T02:08:40;102526.13;;;11.36;85.76
77725;BME280;66892;53.236;6.550;2023-06-05T02:11:06;102530.59;;;11.38;85.79
77725;BME280;66892;53.236;6.550;2023-06-05T02:13:38;102522.66;;;11.38;85.83
77725;BME280;66892;53.236;6.550;2023-06-05T02:16:05;102529.75;;;11.41;85.62
77725;BME280;66892;53.236;6.550;2023-06-05T02:18:31;102527.09;;;11.39;84.79
77725;BME280;66892;53.236;6.550;2023-06-05T02:20:58;102521.69;;;11.35;85.39
77725;BME280;66892;53.236;6.550;2023-06-05T02:23:24;102526.06;;;11.33;85.25
77725;BME280;66892;53.236;6.550;2023-06-05T02:25:50;102523.47;;;11.36;85.72
77725;BME280;66892;53.236;6.550;2023-06-05T02:28:16;102528.84;;;11.40;85.47
77725;BME280;66892;53.236;6.550;2023-06-05T02:30:44;102530.72;;;11.44;85.24
77725;BME280;66892;53.236;6.550;2023-06-05T02:33:11;102521.91;;;11.45;85.46
77725;BME280;66892;53.236;6.550;2023-06-05T02:35:37;102521.78;;;11.39;85.46
77725;BME280;66892;53.236;6.550;2023-06-05T02:38:05;102524.31;;;11.33;85.16
77725;BME280;66892;53.236;6.550;2023-06-05T02:40:32;102527.81;;;11.32;85.45
77725;BME280;66892;53.236;6.550;2023-06-05T02:42:58;102530.41;;;11.29;85.44
77725;BME280;66892;53.236;6.550;2023-06-05T02:45:24;102536.72;;;11.36;85.36
77725;BME280;66892;53.236;6.550;2023-06-05T02:47:51;102528.84;;;11.39;85.35
77725;BME280;66892;53.236;6.550;2023-06-05T02:50:17;102532.47;;;11.44;85.03
77725;BME280;66892;53.236;6.550;2023-06-05T02:52:43;102531.59;;;11.45;84.33
77725;BME280;66892;53.236;6.550;2023-06-05T02:55:09;102528.78;;;11.37;84.41
77725;BME280;66892;53.236;6.550;2023-06-05T02:57:35;102530.59;;;11.38;84.35
77725;BME280;66892;53.236;6.550;2023-06-05T03:00:08;102524.44;;;11.41;84.47
77725;BME280;66892;53.236;6.550;2023-06-05T03:02:34;102528.91;;;11.43;84.07
77725;BME280;66892;53.236;6.550;2023-06-05T03:05:04;102529.78;;;11.42;83.95
77725;BME280;66892;53.236;6.550;2023-06-05T03:07:30;102527.09;;;11.39;83.56
77725;BME280;66892;53.236;6.550;2023-06-05T03:09:59;102527.09;;;11.39;83.38
77725;BME280;66892;53.236;6.550;2023-06-05T03:12:25;102528.91;;;11.43;83.22
77725;BME280;66892;53.236;6.550;2023-06-05T03:14:51;102526.25;;;11.43;82.81
77725;BME280;66892;53.236;6.550;2023-06-05T03:17:17;102518.38;;;11.46;83.32
77725;BME280;66892;53.236;6.550;2023-06-05T03:19:43;102521.03;;;11.46;82.61
77725;BME280;66892;53.236;6.550;2023-06-05T03:22:11;102521.03;;;11.46;82.84
77725;BME280;66892;53.236;6.550;2023-06-05T03:24:37;102519.25;;;11.45;82.38
77725;BME280;66892;53.236;6.550;2023-06-05T03:27:03;102521.84;;;11.42;82.83
77725;BME280;66892;53.236;6.550;2023-06-05T03:29:30;102520.09;;;11.43;82.42
77725;BME280;66892;53.236;6.550;2023-06-05T03:31:56;102515.72;;;11.46;82.50
77725;BME280;66892;53.236;6.550;2023-06-05T03:34:22;102516.75;;;11.53;82.54
77725;BME280;66892;53.236;6.550;2023-06-05T03:36:51;102515.03;;;11.55;82.40
77725;BME280;66892;53.236;6.550;2023-06-05T03:39:18;102515.88;;;11.52;82.58
77725;BME280;66892;53.236;6.550;2023-06-05T03:41:44;102510.53;;;11.51;82.71
77725;BME280;66892;53.236;6.550;2023-06-05T03:44:10;102509.63;;;11.49;82.70
77725;BME280;66892;53.236;6.550;2023-06-05T03:46:36;102514.03;;;11.50;82.93
77725;BME280;66892;53.236;6.550;2023-06-05T03:49:03;102511.44;;;11.53;82.32
77725;BME280;66892;53.236;6.550;2023-06-05T03:51:35;102520.38;;;11.58;82.36
77725;BME280;66892;53.236;6.550;2023-06-05T03:54:01;102507.97;;;11.55;82.39
77725;BME280;66892;53.236;6.550;2023-06-05T03:56:30;102509.75;;;11.55;82.96
77725;BME280;66892;53.236;6.550;2023-06-05T03:59:00;102514.06;;;11.51;83.36
77725;BME280;66892;53.236;6.550;2023-06-05T04:01:44;102508.72;;;11.48;83.23
77725;BME280;66892;53.236;6.550;2023-06-05T04:04:10;102516.69;;;11.50;83.32
77725;BME280;66892;53.236;6.550;2023-06-05T04:06:36;102516.78;;;11.56;83.15
77725;BME280;66892;53.236;6.550;2023-06-05T04:09:02;102514.31;;;11.63;82.77
77725;BME280;66892;53.236;6.550;2023-06-05T04:11:36;102507.25;;;11.64;82.93
77725;BME280;66892;53.236;6.550;2023-06-05T04:14:03;102507.41;;;11.70;82.62
77725;BME280;66892;53.236;6.550;2023-06-05T04:16:29;102511.91;;;11.74;82.64
77725;BME280;66892;53.236;6.550;2023-06-05T04:18:56;102511.06;;;11.77;82.44
77725;BME280;66892;53.236;6.550;2023-06-05T04:21:22;102511.97;;;11.79;82.58
77725;BME280;66892;53.236;6.550;2023-06-05T04:23:48;102507.66;;;11.84;82.23
77725;BME280;66892;53.236;6.550;2023-06-05T04:26:14;102497.97;;;11.84;82.18
77725;BME280;66892;53.236;6.550;2023-06-05T04:28:43;102508.63;;;11.89;82.10
77725;BME280;66892;53.236;6.550;2023-06-05T04:31:09;102510.47;;;11.93;81.02
77725;BME280;66892;53.236;6.550;2023-06-05T04:33:35;102510.50;;;11.94;80.76
77725;BME280;66892;53.236;6.550;2023-06-05T04:36:01;102505.38;;;12.03;79.67
77725;BME280;66892;53.236;6.550;2023-06-05T04:38:30;102508.03;;;12.05;79.06
77725;BME280;66892;53.236;6.550;2023-06-05T04:40:57;102512.56;;;12.12;79.19
77725;BME280;66892;53.236;6.550;2023-06-05T04:43:23;102504.66;;;12.13;78.65
77725;BME280;66892;53.236;6.550;2023-06-05T04:45:51;102509.13;;;12.18;78.07
77725;BME280;66892;53.236;6.550;2023-06-05T04:48:17;102496.84;;;12.24;78.14
77725;BME280;66892;53.236;6.550;2023-06-05T04:50:43;102504.94;;;12.32;77.69
77725;BME280;66892;53.236;6.550;2023-06-05T04:53:09;102513.00;;;12.38;77.58
77725;BME280;66892;53.236;6.550;2023-06-05T04:55:36;102507.72;;;12.39;77.71
77725;BME280;66892;53.236;6.550;2023-06-05T04:58:02;102506.13;;;12.50;76.91
77725;BME280;66892;53.236;6.550;2023-06-05T05:00:30;102510.63;;;12.56;76.75
77725;BME280;66892;53.236;6.550;2023-06-05T05:02:57;102506.25;;;12.58;76.07
77725;BME280;66892;53.236;6.550;2023-06-05T05:05:25;102516.81;;;12.55;76.59
77725;BME280;66892;53.236;6.550;2023-06-05T05:07:51;102508.09;;;12.63;75.55
77725;BME280;66892;53.236;6.550;2023-06-05T05:10:17;102502.94;;;12.76;74.93
77725;BME280;66892;53.236;6.550;2023-06-05T05:12:43;102517.13;;;12.76;73.95
77725;BME280;66892;53.236;6.550;2023-06-05T05:15:10;102502.13;;;12.81;73.90
77725;BME280;66892;53.236;6.550;2023-06-05T05:17:36;102512.88;;;12.87;72.72
77725;BME280;66892;53.236;6.550;2023-06-05T05:20:04;102507.56;;;12.87;73.47
77725;BME280;66892;53.236;6.550;2023-06-05T05:22:32;102508.47;;;12.89;73.16
77725;BME280;66892;53.236;6.550;2023-06-05T05:24:58;102505.84;;;12.92;72.86
77725;BME280;66892;53.236;6.550;2023-06-05T05:27:24;102506.81;;;12.99;72.75
77725;BME280;66892;53.236;6.550;2023-06-05T05:29:50;102503.38;;;13.07;72.49
77725;BME280;66892;53.236;6.550;2023-06-05T05:32:16;102511.50;;;13.16;72.77
77725;BME280;66892;53.236;6.550;2023-06-05T05:34:42;102511.63;;;13.26;71.20
77725;BME280;66892;53.236;6.550;2023-06-05T05:37:10;102507.38;;;13.38;71.43
77725;BME280;66892;53.236;6.550;2023-06-05T05:39:36;102511.88;;;13.47;68.74
77725;BME280;66892;53.236;6.550;2023-06-05T05:42:02;102509.25;;;13.48;69.22
77725;BME280;66892;53.236;6.550;2023-06-05T05:44:28;102514.91;;;13.80;67.94
77725;BME280;66892;53.236;6.550;2023-06-05T05:46:55;102509.97;;;14.25;66.53
77725;BME280;66892;53.236;6.550;2023-06-05T05:49:21;102523.47;;;14.42;66.50
77725;BME280;66892;53.236;6.550;2023-06-05T05:51:47;102521.69;;;14.41;65.60
77725;BME280;66892;53.236;6.550;2023-06-05T05:54:14;102529.16;;;15.00;64.33
77725;BME280;66892;53.236;6.550;2023-06-05T05:56:40;102521.16;;;14.95;64.02
77725;BME280;66892;53.236;6.550;2023-06-05T05:59:08;102518.44;;;14.83;63.07
77725;BME280;66892;53.236;6.550;2023-06-05T06:01:34;102528.09;;;14.70;63.55
77725;BME280;66892;53.236;6.550;2023-06-05T06:04:00;102521.94;;;14.73;63.78
77725;BME280;66892;53.236;6.550;2023-06-05T06:06:26;102521.03;;;14.74;64.64
77725;BME280;66892;53.236;6.550;2023-06-05T06:08:52;102523.69;;;14.74;64.18
77725;BME280;66892;53.236;6.550;2023-06-05T06:11:19;102521.09;;;14.82;63.31
77725;BME280;66892;53.236;6.550;2023-06-05T06:13:45;102526.50;;;14.98;63.25
77725;BME280;66892;53.236;6.550;2023-06-05T06:16:11;102523.88;;;15.06;63.06
77725;BME280;66892;53.236;6.550;2023-06-05T06:18:37;102514.22;;;15.38;62.23
77725;BME280;66892;53.236;6.550;2023-06-05T06:21:03;102519.75;;;16.35;58.38
77725;BME280;66892;53.236;6.550;2023-06-05T06:23:30;102530.25;;;17.36;55.21
77725;BME280;66892;53.236;6.550;2023-06-05T06:25:56;102519.41;;;18.81;50.80
77725;BME280;66892;53.236;6.550;2023-06-05T06:28:23;102516.38;;;19.78;47.30
77725;BME280;66892;53.236;6.550;2023-06-05T06:30:49;102519.72;;;19.94;46.11
77725;BME280;66892;53.236;6.550;2023-06-05T06:33:16;102521.19;;;20.16;45.96
77725;BME280;66892;53.236;6.550;2023-06-05T06:35:43;102520.00;;;20.35;44.21
77725;BME280;66892;53.236;6.550;2023-06-05T06:38:09;102514.25;;;20.57;44.84
77725;BME280;66892;53.236;6.550;2023-06-05T06:40:36;102516.44;;;21.28;42.47
77725;BME280;66892;53.236;6.550;2023-06-05T06:43:02;102514.81;;;21.99;40.48
77725;BME280;66892;53.236;6.550;2023-06-05T06:45:29;102513.66;;;22.80;40.32
77725;BME280;66892;53.236;6.550;2023-06-05T06:47:55;102511.84;;;22.81;38.51
77725;BME280;66892;53.236;6.550;2023-06-05T06:50:21;102509.97;;;22.15;40.83
77725;BME280;66892;53.236;6.550;2023-06-05T06:52:47;102521.44;;;21.00;42.73
77725;BME280;66892;53.236;6.550;2023-06-05T06:55:13;102519.72;;;21.82;41.83
77725;BME280;66892;53.236;6.550;2023-06-05T06:57:39;102521.88;;;20.79;43.74
77725;BME280;66892;53.236;6.550;2023-06-05T07:00:06;102531.13;;;20.10;45.16
77725;BME280;66892;53.236;6.550;2023-06-05T07:02:38;102531.19;;;19.39;47.33
77725;BME280;66892;53.236;6.550;2023-06-05T07:05:05;102534.56;;;18.83;48.76
77725;BME280;66892;53.236;6.550;2023-06-05T07:07:31;102541.88;;;18.66;49.34
77725;BME280;66892;53.236;6.550;2023-06-05T07:09:58;102529.63;;;18.33;49.67
77725;BME280;66892;53.236;6.550;2023-06-05T07:12:24;102532.53;;;18.05;50.70
77725;BME280;66892;53.236;6.550;2023-06-05T07:14:50;102524.66;;;17.88;51.76
77725;BME280;66892;53.236;6.550;2023-06-05T07:17:16;102519.66;;;19.36;49.45
77725;BME280;66892;53.236;6.550;2023-06-05T07:19:43;102518.72;;;19.38;48.20
77725;BME280;66892;53.236;6.550;2023-06-05T07:22:09;102530.88;;;18.93;49.76
77725;BME280;66892;53.236;6.550;2023-06-05T07:24:36;102521.13;;;18.85;49.10
77725;BME280;66892;53.236;6.550;2023-06-05T07:27:04;102524.84;;;18.73;49.64
77725;BME280;66892;53.236;6.550;2023-06-05T07:29:30;102532.97;;;18.64;50.34
77725;BME280;66892;53.236;6.550;2023-06-05T07:31:57;102523.06;;;18.72;49.77
77725;BME280;66892;53.236;6.550;2023-06-05T07:34:25;102531.22;;;18.60;50.64
77725;BME280;66892;53.236;6.550;2023-06-05T07:36:53;102541.47;;;19.04;49.88
77725;BME280;66892;53.236;6.550;2023-06-05T07:39:20;102531.84;;;18.85;49.18
77725;BME280;66892;53.236;6.550;2023-06-05T07:41:46;102534.13;;;19.88;47.72
77725;BME280;66892;53.236;6.550;2023-06-05T07:44:14;102531.75;;;20.79;44.75
77725;BME280;66892;53.236;6.550;2023-06-05T07:46:40;102524.59;;;22.05;41.41
77725;BME280;66892;53.236;6.550;2023-06-05T07:49:07;102518.38;;;23.35;38.80
77725;BME280;66892;53.236;6.550;2023-06-05T07:51:33;102527.81;;;23.81;36.46
77725;BME280;66892;53.236;6.550;2023-06-05T07:54:03;102517.59;;;24.44;35.84
77725;BME280;66892;53.236;6.550;2023-06-05T07:56:29;102517.16;;;25.31;34.25
77725;BME280;66892;53.236;6.550;2023-06-05T07:58:57;102518.41;;;26.13;33.02
77725;BME280;66892;53.236;6.550;2023-06-05T08:01:23;102525.97;;;26.69;31.82
77725;BME280;66892;53.236;6.550;2023-06-05T08:03:49;102519.22;;;26.99;31.01
77725;BME280;66892;53.236;6.550;2023-06-05T08:06:16;102517.94;;;27.65;30.56
77725;BME280;66892;53.236;6.550;2023-06-05T08:08:42;102527.28;;;27.40;30.35
77725;BME280;66892;53.236;6.550;2023-06-05T08:11:12;102529.13;;;26.38;31.45
77725;BME280;66892;53.236;6.550;2023-06-05T08:13:38;102528.53;;;24.92;33.86
77725;BME280;66892;53.236;6.550;2023-06-05T08:16:04;102523.72;;;25.48;33.49
77725;BME280;66892;53.236;6.550;2023-06-05T08:18:30;102527.38;;;25.47;32.65
77725;BME280;66892;53.236;6.550;2023-06-05T08:20:56;102531.41;;;26.49;31.44
77725;BME280;66892;53.236;6.550;2023-06-05T08:23:23;102523.16;;;27.31;30.26
77725;BME280;66892;53.236;6.550;2023-06-05T08:25:49;102522.34;;;26.90;30.25
77725;BME280;66892;53.236;6.550;2023-06-05T08:28:16;102516.84;;;26.92;30.70
77725;BME280;66892;53.236;6.550;2023-06-05T08:30:42;102526.81;;;26.29;31.43
77725;BME280;66892;53.236;6.550;2023-06-05T08:33:10;102525.09;;;24.62;33.88
77725;BME280;66892;53.236;6.550;2023-06-05T08:35:39;102519.16;;;23.40;36.49
77725;BME280;66892;53.236;6.550;2023-06-05T08:38:06;102529.78;;;22.48;38.80
77725;BME280;66892;53.236;6.550;2023-06-05T08:40:32;102530.00;;;22.03;39.87
77725;BME280;66892;53.236;6.550;2023-06-05T08:43:00;102542.66;;;21.60;41.53
77725;BME280;66892;53.236;6.550;2023-06-05T08:45:28;102530.88;;;21.24;41.83
77725;BME280;66892;53.236;6.550;2023-06-05T08:47:54;102528.84;;;21.75;41.53
77725;BME280;66892;53.236;6.550;2023-06-05T08:50:26;102533.41;;;22.82;38.55
77725;BME280;66892;53.236;6.550;2023-06-05T08:52:55;102525.81;;;21.92;41.01
77725;BME280;66892;53.236;6.550;2023-06-05T08:55:22;102526.28;;;20.83;43.20
77725;BME280;66892;53.236;6.550;2023-06-05T08:57:48;102527.84;;;20.46;44.29
77725;BME280;66892;53.236;6.550;2023-06-05T09:00:15;102527.47;;;22.33;40.51
77725;BME280;66892;53.236;6.550;2023-06-05T09:02:43;102522.88;;;22.73;39.43
77725;BME280;66892;53.236;6.550;2023-06-05T09:05:09;102518.25;;;23.98;37.84
77725;BME280;66892;53.236;6.550;2023-06-05T09:07:36;102515.41;;;25.06;34.89
77725;BME280;66892;53.236;6.550;2023-06-05T09:10:06;102519.31;;;25.46;33.97
77725;BME280;66892;53.236;6.550;2023-06-05T09:12:32;102510.81;;;25.32;34.43
77725;BME280;66892;53.236;6.550;2023-06-05T09:15:21;102509.97;;;25.54;33.02
77725;BME280;66892;53.236;6.550;2023-06-05T09:18:02;102513.66;;;24.79;34.98
77725;BME280;66892;53.236;6.550;2023-06-05T09:20:29;102506.03;;;24.65;35.39
77725;BME280;66892;53.236;6.550;2023-06-05T09:22:55;102504.13;;;25.65;34.06
77725;BME280;66892;53.236;6.550;2023-06-05T09:25:21;102504.66;;;25.75;33.23
77725;BME280;66892;53.236;6.550;2023-06-05T09:28:05;102506.81;;;25.18;33.85
77725;BME280;66892;53.236;6.550;2023-06-05T09:30:31;102500.34;;;25.69;32.71
77725;BME280;66892;53.236;6.550;2023-06-05T09:33:08;102508.00;;;26.66;31.86
77725;BME280;66892;53.236;6.550;2023-06-05T09:35:34;102504.16;;;27.31;30.17
77725;BME280;66892;53.236;6.550;2023-06-05T09:38:25;102504.78;;;27.17;30.04
77725;BME280;66892;53.236;6.550;2023-06-05T09:40:52;102501.03;;;25.28;33.29
77725;BME280;66892;53.236;6.550;2023-06-05T09:43:21;102504.03;;;24.46;35.00
77725;BME280;66892;53.236;6.550;2023-06-05T09:45:50;102509.03;;;25.31;33.68
77725;BME280;66892;53.236;6.550;2023-06-05T09:48:18;102505.16;;;26.06;32.16
77725;BME280;66892;53.236;6.550;2023-06-05T09:50:44;102508.94;;;26.02;31.22
77725;BME280;66892;53.236;6.550;2023-06-05T09:53:13;102501.31;;;25.68;31.97
77725;BME280;66892;53.236;6.550;2023-06-05T09:55:41;102498.97;;;23.81;35.92
77725;BME280;66892;53.236;6.550;2023-06-05T09:58:11;102498.63;;;24.46;35.02
77725;BME280;66892;53.236;6.550;2023-06-05T10:00:40;102497.84;;;25.40;33.52
77725;BME280;66892;53.236;6.550;2023-06-05T10:03:08;102502.94;;;26.15;32.52
77725;BME280;66892;53.236;6.550;2023-06-05T10:05:40;102496.75;;;26.12;31.15
77725;BME280;66892;53.236;6.550;2023-06-05T10:08:07;102494.75;;;26.39;31.18
77725;BME280;66892;53.236;6.550;2023-06-05T10:10:34;102500.94;;;26.20;31.44
77725;BME280;66892;53.236;6.550;2023-06-05T10:13:01;102494.44;;;26.03;32.04
77725;BME280;66892;53.236;6.550;2023-06-05T10:15:27;102486.88;;;25.89;31.70
77725;BME280;66892;53.236;6.550;2023-06-05T10:17:54;102499.75;;;26.28;31.69
77725;BME280;66892;53.236;6.550;2023-06-05T10:20:21;102488.78;;;26.51;31.58
77725;BME280;66892;53.236;6.550;2023-06-05T10:22:49;102489.81;;;26.48;31.49
77725;BME280;66892;53.236;6.550;2023-06-05T10:25:17;102490.13;;;26.41;32.15
77725;BME280;66892;53.236;6.550;2023-06-05T10:28:01;102490.34;;;26.56;31.24
77725;BME280;66892;53.236;6.550;2023-06-05T10:33:35;102487.72;;;26.55;31.15
77725;BME280;66892;53.236;6.550;2023-06-05T10:36:10;102480.44;;;26.35;32.45
77725;BME280;66892;53.236;6.550;2023-06-05T10:38:43;102481.25;;;26.57;31.76
77725;BME280;66892;53.236;6.550;2023-06-05T10:41:10;102480.72;;;26.69;31.32
77725;BME280;66892;53.236;6.550;2023-06-05T10:43:45;102479.56;;;26.55;32.11
77725;BME280;66892;53.236;6.550;2023-06-05T10:46:32;102474.47;;;25.84;32.38
77725;BME280;66892;53.236;6.550;2023-06-05T10:49:08;102481.19;;;25.95;32.93
77725;BME280;66892;53.236;6.550;2023-06-05T10:51:36;102470.66;;;26.09;33.24
77725;BME280;66892;53.236;6.550;2023-06-05T10:54:08;102473.91;;;26.19;32.78
77725;BME280;66892;53.236;6.550;2023-06-05T10:56:57;102477.84;;;26.32;32.73
77725;BME280;66892;53.236;6.550;2023-06-05T10:59:32;102482.66;;;26.26;31.96
77725;BME280;66892;53.236;6.550;2023-06-05T11:02:24;102468.81;;;25.88;33.16
77725;BME280;66892;53.236;6.550;2023-06-05T11:05:07;102473.88;;;25.76;33.62
77725;BME280;66892;53.236;6.550;2023-06-05T11:07:33;102479.34;;;24.30;35.55
77725;BME280;66892;53.236;6.550;2023-06-05T11:10:06;102472.53;;;24.19;36.22
77725;BME280;66892;53.236;6.550;2023-06-05T11:12:57;102467.53;;;24.33;35.45
77725;BME280;66892;53.236;6.550;2023-06-05T11:15:50;102471.38;;;23.72;37.48
77725;BME280;66892;53.236;6.550;2023-06-05T11:18:27;102472.50;;;23.04;38.29
77725;BME280;66892;53.236;6.550;2023-06-05T11:20:55;102467.66;;;23.16;38.20
77725;BME280;66892;53.236;6.550;2023-06-05T11:23:21;102467.09;;;23.65;37.17
77725;BME280;66892;53.236;6.550;2023-06-05T11:25:49;102475.56;;;24.08;36.51
77725;BME280;66892;53.236;6.550;2023-06-05T11:28:36;102471.75;;;24.15;36.24
77725;BME280;66892;53.236;6.550;2023-06-05T11:31:03;102470.00;;;24.14;36.35
77725;BME280;66892;53.236;6.550;2023-06-05T11:33:29;102464.94;;;24.30;36.73
77725;BME280;66892;53.236;6.550;2023-06-05T11:36:00;102467.09;;;24.20;36.28
77725;BME280;66892;53.236;6.550;2023-06-05T11:38:26;102468.41;;;24.07;37.18
77725;BME280;66892;53.236;6.550;2023-06-05T11:40:54;102462.41;;;23.97;37.95
77725;BME280;66892;53.236;6.550;2023-06-05T11:43:21;102466.03;;;23.96;38.14
77725;BME280;66892;53.236;6.550;2023-06-05T11:45:52;102468.78;;;23.67;38.45
77725;BME280;66892;53.236;6.550;2023-06-05T11:48:18;102462.38;;;23.71;37.79
77725;BME280;66892;53.236;6.550;2023-06-05T11:50:53;102459.84;;;23.93;37.39
77725;BME280;66892;53.236;6.550;2023-06-05T11:53:20;102463.69;;;23.58;38.05
77725;BME280;66892;53.236;6.550;2023-06-05T11:55:46;102458.28;;;23.58;38.16
77725;BME280;66892;53.236;6.550;2023-06-05T11:58:22;102455.91;;;23.47;38.52
77725;BME280;66892;53.236;6.550;2023-06-05T12:00:48;102457.25;;;23.33;38.23
77725;BME280;66892;53.236;6.550;2023-06-05T12:03:17;102461.00;;;22.98;39.14
77725;BME280;66892;53.236;6.550;2023-06-05T12:05:44;102464.94;;;22.86;39.61
77725;BME280;66892;53.236;6.550;2023-06-05T12:08:22;102463.66;;;22.69;40.30
77725;BME280;66892;53.236;6.550;2023-06-05T12:10:48;102457.22;;;22.40;40.30
77725;BME280;66892;53.236;6.550;2023-06-05T12:13:14;102460.63;;;22.13;41.59
77725;BME280;66892;53.236;6.550;2023-06-05T12:15:42;102460.44;;;22.19;41.77
77725;BME280;66892;53.236;6.550;2023-06-05T12:18:08;102465.84;;;22.19;41.62
77725;BME280;66892;53.236;6.550;2023-06-05T12:20:38;102466.34;;;21.99;41.87
77725;BME280;66892;53.236;6.550;2023-06-05T12:23:08;102459.16;;;21.62;43.12
77725;BME280;66892;53.236;6.550;2023-06-05T12:25:34;102475.66;;;21.46;43.67
77725;BME280;66892;53.236;6.550;2023-06-05T12:28:00;102464.16;;;21.40;43.92
77725;BME280;66892;53.236;6.550;2023-06-05T12:30:39;102459.34;;;21.14;44.23
77725;BME280;66892;53.236;6.550;2023-06-05T12:33:07;102451.25;;;21.16;44.41
77725;BME280;66892;53.236;6.550;2023-06-05T12:35:34;102452.59;;;20.92;44.54
77725;BME280;66892;53.236;6.550;2023-06-05T12:38:00;102460.94;;;20.80;45.53
77725;BME280;66892;53.236;6.550;2023-06-05T12:40:27;102467.47;;;20.65;45.86
77725;BME280;66892;53.236;6.550;2023-06-05T12:42:53;102454.50;;;20.41;46.39
77725;BME280;66892;53.236;6.550;2023-06-05T12:45:21;102454.19;;;20.58;46.50
77725;BME280;66892;53.236;6.550;2023-06-05T12:47:48;102452.38;;;20.58;46.28
77725;BME280;66892;53.236;6.550;2023-06-05T12:50:15;102456.91;;;20.56;46.56
77725;BME280;66892;53.236;6.550;2023-06-05T12:52:42;102452.16;;;20.70;46.48
77725;BME280;66892;53.236;6.550;2023-06-05T12:55:09;102459.78;;;20.45;46.48
77725;BME280;66892;53.236;6.550;2023-06-05T12:57:35;102445.66;;;20.34;47.20